Terminal Aerodrome Forecast
Issued by NWS

Current Version | Previous Version | Text Only | Print | Product List | Glossary On
Versions: 1 2 3 4 5 6 7 8 9 10 11 12 13 14 15 16 17 18 19 20 21 22 23 24
000
FTUS43 KMQT 290522
TAFSAW
TAF
KSAW 290522Z 2906/3006 19007KT P6SM VCSH BKN060
     FM290800 18006KT 4SM BR BKN020
     FM291000 18003KT 4SM BR BKN003
     FM291600 21009KT P6SM -SHRA OVC015
     FM291800 22009KT P6SM -SHRA OVC025
     FM292200 26007KT P6SM VCSH BKN025
     FM300000 28006KT P6SM SCT025=

USA.gov is the U.S. government's official web portal to all federal, state and local government web resources and services.